Time;durP1;ratioP1;P1;durP2;ratioP2;P2;SDS_P1;SDS_P2;PMS_P1;PMS_P2;Temp;Humidity;BMP_temperature;BMP_pressure;BME280_temperature;BME280_humidity;BME280_pressure;Samples;Min_cycle;Max_cycle;Signal;HPM_P1;HPM_P2
2022/01/30 00:00:47;;;;;;;3.63;1.30;;;11.50;85.00;;;;;;5007509;28;20404;-69
2022/01/30 00:03:15;;;;;;;2.67;1.17;;;11.40;84.70;;;;;;4997440;28;20027;-69
2022/01/30 00:05:41;;;;;;;2.78;1.20;;;11.40;85.00;;;;;;5005760;28;20038;-69
2022/01/30 00:08:06;;;;;;;2.40;1.38;;;11.40;85.10;;;;;;5004830;28;20519;-69
2022/01/30 00:10:37;;;;;;;2.92;1.52;;;11.40;85.30;;;;;;5002256;28;20063;-69
2022/01/30 00:13:05;;;;;;;3.30;1.30;;;11.40;84.80;;;;;;5007753;28;20018;-69
2022/01/30 00:15:41;;;;;;;3.53;1.20;;;11.40;85.00;;;;;;5000698;28;20018;-69
2022/01/30 00:18:21;;;;;;;2.65;1.20;;;11.40;85.50;;;;;;5005464;28;20109;-69
2022/01/30 00:21:00;;;;;;;3.70;1.40;;;11.40;85.80;;;;;;5005010;28;20029;-69
2022/01/30 00:23:28;;;;;;;2.72;1.17;;;11.40;85.60;;;;;;5005669;28;20551;-69
2022/01/30 00:25:56;;;;;;;3.55;1.20;;;11.40;85.50;;;;;;5006466;28;20030;-69
2022/01/30 00:28:25;;;;;;;2.60;1.30;;;11.40;85.50;;;;;;5000516;28;20121;-69
2022/01/30 00:30:51;;;;;;;2.95;1.15;;;11.30;85.80;;;;;;5006067;28;20133;-69
2022/01/30 00:33:17;;;;;;;2.45;0.88;;;11.30;85.90;;;;;;4996011;28;20109;-69
2022/01/30 00:35:42;;;;;;;4.22;1.70;;;11.30;86.40;;;;;;4994206;28;20470;-69
2022/01/30 00:38:15;;;;;;;2.15;1.40;;;11.30;86.20;;;;;;5004096;28;20030;-69
2022/01/30 00:40:40;;;;;;;3.22;1.23;;;11.30;86.50;;;;;;5009349;28;20082;-69
2022/01/30 00:43:06;;;;;;;1.83;1.02;;;11.30;86.30;;;;;;4995515;28;20031;-69
2022/01/30 00:45:32;;;;;;;1.90;1.20;;;11.30;87.00;;;;;;4997429;28;20018;-69
2022/01/30 00:47:57;;;;;;;2.78;1.20;;;11.30;86.80;;;;;;4997544;28;20519;-69
2022/01/30 00:50:23;;;;;;;2.53;1.27;;;11.30;86.60;;;;;;4995659;28;20456;-69
2022/01/30 00:52:53;;;;;;;4.57;1.30;;;11.30;86.70;;;;;;4995559;28;20057;-69
2022/01/30 00:55:20;;;;;;;3.55;1.20;;;11.30;87.00;;;;;;4994758;28;20011;-69
2022/01/30 00:57:45;;;;;;;1.98;1.00;;;11.20;86.80;;;;;;4996435;28;20034;-69
2022/01/30 01:00:12;;;;;;;1.70;1.08;;;11.30;87.30;;;;;;4997223;28;20042;-68
2022/01/30 01:02:38;;;;;;;2.40;1.10;;;11.30;87.40;;;;;;5004451;28;20038;-68
2022/01/30 01:05:06;;;;;;;3.17;1.20;;;11.30;86.60;;;;;;4996812;28;20022;-68
2022/01/30 01:07:33;;;;;;;3.22;1.25;;;11.30;87.20;;;;;;4993500;28;20042;-68
2022/01/30 01:10:09;;;;;;;1.90;0.82;;;11.30;87.40;;;;;;5007908;28;20503;-69
2022/01/30 01:23:38;;;;;;;3.85;1.48;;;11.30;87.50;;;;;;4998382;28;20583;-68
2022/01/30 01:26:03;;;;;;;3.85;1.33;;;11.20;87.20;;;;;;4998420;28;20036;-69
2022/01/30 01:28:29;;;;;;;2.70;1.20;;;11.20;87.00;;;;;;4997657;28;20117;-68
2022/01/30 01:30:55;;;;;;;2.28;1.45;;;11.20;87.10;;;;;;4995681;28;20022;-69
2022/01/30 01:33:25;;;;;;;1.55;1.10;;;11.20;87.80;;;;;;4997244;28;20034;-69
2022/01/30 01:35:51;;;;;;;3.50;1.30;;;11.10;87.80;;;;;;4996869;28;20050;-69
2022/01/30 01:38:16;;;;;;;2.08;0.98;;;11.10;87.80;;;;;;4997933;28;20030;-68
2022/01/30 01:40:55;;;;;;;2.75;1.27;;;11.20;87.80;;;;;;4997975;28;20022;-69
2022/01/30 01:43:23;;;;;;;1.30;0.98;;;11.20;87.80;;;;;;4996649;28;20033;-69
2022/01/30 01:45:52;;;;;;;2.28;1.48;;;11.20;88.80;;;;;;4996451;28;20046;-69
2022/01/30 01:48:18;;;;;;;1.35;0.93;;;11.10;87.80;;;;;;4997638;28;20038;-69
2022/01/30 01:50:52;;;;;;;2.78;1.20;;;11.10;88.50;;;;;;4997979;28;20097;-69
2022/01/30 01:53:22;;;;;;;2.25;1.30;;;11.10;88.60;;;;;;4997885;28;20030;-68
2022/01/30 01:55:47;;;;;;;1.48;0.90;;;11.10;88.10;;;;;;4997911;28;20026;-69
2022/01/30 01:58:13;;;;;;;3.30;1.30;;;11.10;88.30;;;;;;4995894;28;20034;-68
2022/01/30 02:00:39;;;;;;;3.53;1.35;;;11.10;88.30;;;;;;4997329;28;20031;-69
2022/01/30 02:03:05;;;;;;;2.55;1.10;;;11.10;88.00;;;;;;4997421;28;20026;-69
2022/01/30 02:05:34;;;;;;;2.70;1.25;;;11.10;88.60;;;;;;4997714;28;20404;-69
2022/01/30 02:08:27;;;;;;;2.58;1.20;;;11.10;88.50;;;;;;4997581;28;20037;-68
2022/01/30 02:24:39;;;;;;;2.45;0.98;;;11.20;88.60;;;;;;5000428;28;20044;-68
2022/01/30 02:27:05;;;;;;;1.60;1.02;;;11.20;88.70;;;;;;4999897;28;20042;-68
2022/01/30 02:29:32;;;;;;;2.08;1.20;;;11.20;89.10;;;;;;4999869;28;20022;-69
2022/01/30 02:31:59;;;;;;;2.45;1.15;;;11.20;89.30;;;;;;4998747;28;20112;-68
2022/01/30 02:34:29;;;;;;;1.48;0.95;;;11.20;88.90;;;;;;4998549;28;20030;-69
2022/01/30 02:36:56;;;;;;;2.53;1.20;;;11.20;89.10;;;;;;4997480;28;20136;-68
2022/01/30 02:39:22;;;;;;;1.55;1.10;;;11.30;90.00;;;;;;4999848;28;20034;-69
2022/01/30 02:41:48;;;;;;;1.85;1.15;;;11.20;89.00;;;;;;4999637;28;20022;-69
2022/01/30 02:47:10;;;;;;;1.90;0.88;;;11.20;89.00;;;;;;4998480;28;20459;-69
2022/01/30 02:50:07;;;;;;;1.77;0.98;;;11.30;89.20;;;;;;4996953;28;20018;-68
2022/01/30 02:52:31;;;;;;;3.72;1.05;;;11.30;88.90;;;;;;4996468;28;20022;-68
2022/01/30 02:54:57;;;;;;;1.65;0.90;;;11.30;89.10;;;;;;4994413;28;20049;-68
2022/01/30 02:57:22;;;;;;;1.65;1.13;;;11.40;89.00;;;;;;4996415;28;20425;-68
2022/01/30 02:59:49;;;;;;;1.42;0.82;;;11.40;88.90;;;;;;4996630;28;20073;-68
2022/01/30 03:02:16;;;;;;;1.23;1.05;;;11.30;88.50;;;;;;4999427;28;20029;-69
2022/01/30 03:04:42;;;;;;;1.85;1.02;;;11.30;88.40;;;;;;5011046;28;20093;-68
2022/01/30 03:07:08;;;;;;;1.50;0.98;;;11.30;88.70;;;;;;4994249;28;20497;-69
2022/01/30 03:09:34;;;;;;;1.50;0.98;;;11.20;88.90;;;;;;4999296;28;20077;-69
2022/01/30 03:11:59;;;;;;;2.05;0.90;;;11.30;89.00;;;;;;5001145;28;20042;-69
2022/01/30 03:14:25;;;;;;;1.23;1.00;;;11.30;89.00;;;;;;5004462;28;20441;-68
2022/01/30 03:16:51;;;;;;;1.25;0.98;;;11.30;88.90;;;;;;4997104;28;20068;-68
2022/01/30 03:19:16;;;;;;;1.10;1.00;;;11.30;89.30;;;;;;4995481;28;20386;-68
2022/01/30 03:21:42;;;;;;;1.67;1.00;;;11.30;89.10;;;;;;4998196;28;20033;-68
2022/01/30 03:24:07;;;;;;;1.50;1.08;;;11.30;89.20;;;;;;4998925;28;20516;-68
2022/01/30 03:26:38;;;;;;;2.45;1.10;;;11.30;88.70;;;;;;4998790;28;20038;-68
2022/01/30 03:29:06;;;;;;;2.05;0.90;;;11.30;89.20;;;;;;4998371;28;20026;-69
2022/01/30 03:31:37;;;;;;;2.33;1.10;;;11.30;89.20;;;;;;4995980;28;20022;-69
2022/01/30 03:34:05;;;;;;;2.08;1.30;;;11.20;89.20;;;;;;5008380;28;20113;-68
2022/01/30 03:36:31;;;;;;;1.05;0.80;;;11.20;89.00;;;;;;4998383;28;20106;-69
2022/01/30 03:38:58;;;;;;;1.58;0.80;;;11.20;89.70;;;;;;4995935;28;20511;-69
2022/01/30 03:41:25;;;;;;;1.52;1.10;;;11.20;89.00;;;;;;4995824;28;20060;-68
2022/01/30 03:43:50;;;;;;;1.45;0.80;;;11.20;89.60;;;;;;4995517;28;20508;-68
2022/01/30 03:46:18;;;;;;;1.65;0.93;;;11.20;89.40;;;;;;4993880;28;20506;-69
2022/01/30 03:48:44;;;;;;;2.03;1.10;;;11.20;90.10;;;;;;4997512;28;20385;-69
2022/01/30 03:51:10;;;;;;;2.15;1.10;;;11.20;89.30;;;;;;4997045;28;20025;-69
2022/01/30 03:53:35;;;;;;;2.65;1.10;;;11.20;89.40;;;;;;4998357;28;20026;-69
2022/01/30 03:56:02;;;;;;;1.77;1.30;;;11.20;89.20;;;;;;4998136;28;20014;-69
2022/01/30 03:58:28;;;;;;;1.52;1.00;;;11.20;89.50;;;;;;4994023;28;20026;-69
2022/01/30 04:00:54;;;;;;;1.83;0.93;;;11.10;89.80;;;;;;4997454;28;20057;-68
2022/01/30 04:03:20;;;;;;;1.92;0.90;;;11.20;90.00;;;;;;4998209;28;20508;-69
2022/01/30 04:05:45;;;;;;;1.33;1.00;;;11.20;90.00;;;;;;5003746;28;20029;-68
2022/01/30 04:08:11;;;;;;;1.23;0.85;;;11.20;89.90;;;;;;5005574;28;20485;-69
2022/01/30 04:10:37;;;;;;;1.30;0.80;;;11.20;89.60;;;;;;4995560;28;20037;-69
2022/01/30 04:13:03;;;;;;;1.25;1.08;;;11.20;89.80;;;;;;4992654;28;20113;-69
2022/01/30 04:15:30;;;;;;;1.10;0.75;;;11.30;89.80;;;;;;4995296;28;20540;-69
2022/01/30 04:17:56;;;;;;;1.67;1.02;;;11.20;89.80;;;;;;4995084;28;20031;-68
2022/01/30 04:20:21;;;;;;;1.70;1.00;;;11.30;90.00;;;;;;4995525;28;20485;-69
2022/01/30 04:22:47;;;;;;;1.77;1.08;;;11.30;89.90;;;;;;4994506;28;20041;-68
2022/01/30 04:25:13;;;;;;;1.60;1.30;;;11.30;90.00;;;;;;4995707;28;20032;-68
2022/01/30 04:27:38;;;;;;;1.55;1.17;;;11.30;89.80;;;;;;4996967;28;20042;-68
2022/01/30 04:30:06;;;;;;;1.58;1.08;;;11.30;90.10;;;;;;4994791;28;20072;-68
2022/01/30 04:32:33;;;;;;;1.40;0.80;;;11.30;90.00;;;;;;4995185;28;20061;-69
2022/01/30 04:35:09;;;;;;;1.60;0.80;;;11.30;90.10;;;;;;4995217;28;20022;-68
2022/01/30 04:40:41;;;;;;;1.15;0.70;;;11.30;89.80;;;;;;4992554;28;20030;-68
2022/01/30 04:54:51;;;;;;;0.80;0.55;;;11.30;90.10;;;;;;5001944;28;20077;-69
2022/01/30 05:00:06;;;;;;;1.88;0.77;;;11.40;90.10;;;;;;4998628;28;20532;-67
2022/01/30 05:05:52;;;;;;;0.90;0.80;;;11.40;90.00;;;;;;4963189;28;20035;-68
2022/01/30 05:08:18;;;;;;;1.20;0.77;;;11.30;89.80;;;;;;4963294;28;20133;-68
2022/01/30 05:10:44;;;;;;;1.02;0.73;;;11.30;90.10;;;;;;4960020;28;20126;-68
2022/01/30 05:13:15;;;;;;;0.80;0.60;;;11.40;90.10;;;;;;4958789;28;20035;-68
2022/01/30 05:15:43;;;;;;;1.92;0.80;;;11.40;90.20;;;;;;4961616;28;20481;-68
2022/01/30 05:18:09;;;;;;;1.55;0.75;;;11.40;90.00;;;;;;4958853;28;20126;-68
2022/01/30 05:20:36;;;;;;;1.23;0.82;;;11.40;90.20;;;;;;4962869;28;20065;-68
2022/01/30 05:23:02;;;;;;;1.30;0.90;;;11.40;90.10;;;;;;4970267;28;20035;-68
2022/01/30 05:25:28;;;;;;;1.95;0.90;;;11.40;90.10;;;;;;4973273;28;20082;-68
2022/01/30 05:27:54;;;;;;;1.35;0.77;;;11.40;90.10;;;;;;4969870;28;20046;-68
2022/01/30 05:30:20;;;;;;;0.75;0.60;;;11.40;89.90;;;;;;4947603;29;20035;-68
2022/01/30 05:32:45;;;;;;;1.27;0.70;;;11.30;89.70;;;;;;4962573;28;20521;-68
2022/01/30 05:35:12;;;;;;;0.80;0.60;;;11.30;90.10;;;;;;4960163;28;20039;-68
2022/01/30 05:37:39;;;;;;;0.70;0.60;;;11.30;90.10;;;;;;5013199;28;20046;-68
2022/01/30 05:40:06;;;;;;;0.90;0.60;;;11.40;90.30;;;;;;4994406;28;20035;-68
2022/01/30 05:42:32;;;;;;;0.88;0.70;;;11.40;90.10;;;;;;5001079;28;20049;-68
2022/01/30 05:47:31;;;;;;;2.55;0.80;;;11.30;90.00;;;;;;5003097;28;20030;-69
2022/01/30 05:49:57;;;;;;;2.53;0.90;;;11.20;89.60;;;;;;5010264;28;20022;-69
2022/01/30 05:52:24;;;;;;;3.17;0.90;;;11.20;89.90;;;;;;4996604;28;22689;-69
2022/01/30 05:54:49;;;;;;;2.40;0.88;;;11.20;90.00;;;;;;4996351;28;20054;-68
2022/01/30 05:57:15;;;;;;;5.40;0.98;;;11.30;90.00;;;;;;5000667;28;20081;-69
2022/01/30 05:59:41;;;;;;;4.28;0.90;;;11.30;90.00;;;;;;5000550;28;20022;-69
2022/01/30 06:02:06;;;;;;;4.20;1.00;;;11.30;89.60;;;;;;5000604;28;20026;-69
2022/01/30 06:04:32;;;;;;;4.57;1.40;;;11.20;89.50;;;;;;4996263;28;20032;-68
2022/01/30 06:07:00;;;;;;;5.82;1.20;;;11.10;89.30;;;;;;5010407;28;20377;-68
2022/01/30 06:09:25;;;;;;;4.75;1.30;;;11.10;89.30;;;;;;4997373;28;20033;-68
2022/01/30 06:11:51;;;;;;;5.95;1.42;;;11.10;89.90;;;;;;4997652;28;20034;-69
2022/01/30 06:14:18;;;;;;;4.15;1.20;;;11.10;89.70;;;;;;4996177;28;20113;-68
2022/01/30 06:16:44;;;;;;;4.80;1.20;;;11.20;90.00;;;;;;4997639;28;20381;-69
2022/01/30 06:19:09;;;;;;;3.97;0.95;;;11.20;90.00;;;;;;4995471;28;20539;-69
2022/01/30 06:21:35;;;;;;;7.72;1.25;;;11.20;89.70;;;;;;4997012;28;20026;-69
2022/01/30 06:24:01;;;;;;;4.18;0.80;;;11.20;89.80;;;;;;4995708;28;20038;-69
2022/01/30 06:26:28;;;;;;;5.57;1.20;;;11.20;89.90;;;;;;4997271;28;20037;-68
2022/01/30 06:28:54;;;;;;;6.53;1.45;;;11.30;89.60;;;;;;4997385;28;20038;-68
2022/01/30 06:31:20;;;;;;;5.05;1.20;;;11.20;89.70;;;;;;5011158;28;20040;-68
2022/01/30 06:33:45;;;;;;;5.47;1.40;;;11.30;89.60;;;;;;5010078;28;20053;-68
2022/01/30 06:36:11;;;;;;;4.35;1.33;;;11.30;89.60;;;;;;4999054;28;20045;-68
2022/01/30 06:38:37;;;;;;;4.40;1.00;;;11.20;89.60;;;;;;4996983;28;20484;-69
2022/01/30 06:41:03;;;;;;;6.05;1.48;;;11.30;89.60;;;;;;4997222;28;20026;-68
2022/01/30 06:43:28;;;;;;;6.78;1.15;;;11.20;89.30;;;;;;5010552;28;20077;-68
2022/01/30 06:45:55;;;;;;;6.07;1.52;;;11.20;89.70;;;;;;4995008;28;20485;-68
2022/01/30 06:48:21;;;;;;;7.82;1.65;;;11.30;89.70;;;;;;4996939;28;20069;-68
2022/01/30 06:50:47;;;;;;;8.48;1.40;;;11.30;89.60;;;;;;5001085;28;20062;-69
2022/01/30 06:53:13;;;;;;;6.88;1.80;;;11.30;89.50;;;;;;4996274;28;20042;-68
2022/01/30 06:55:42;;;;;;;5.50;1.27;;;11.30;89.20;;;;;;5011688;28;20030;-68
2022/01/30 06:58:09;;;;;;;8.98;1.70;;;11.30;89.40;;;;;;4992342;28;20525;-68
2022/01/30 07:00:35;;;;;;;6.10;1.55;;;11.30;88.80;;;;;;4995368;28;20030;-68
2022/01/30 07:03:00;;;;;;;7.63;1.40;;;11.30;89.10;;;;;;4999345;28;20137;-69
2022/01/30 07:05:27;;;;;;;5.47;1.27;;;11.30;89.10;;;;;;5010382;28;20469;-69
2022/01/30 07:07:52;;;;;;;8.05;1.55;;;11.20;89.50;;;;;;4996146;28;20034;-69
2022/01/30 07:10:19;;;;;;;6.88;1.33;;;11.30;89.30;;;;;;4995321;28;20023;-69
2022/01/30 07:12:45;;;;;;;5.40;1.20;;;11.30;89.20;;;;;;5003602;28;20044;-69
2022/01/30 07:15:11;;;;;;;8.00;1.45;;;11.30;89.10;;;;;;5008870;28;20026;-69
2022/01/30 07:17:36;;;;;;;7.18;1.73;;;11.20;89.00;;;;;;5003637;28;20041;-70
2022/01/30 07:20:04;;;;;;;6.10;1.45;;;11.20;89.00;;;;;;5007063;28;20068;-69
2022/01/30 07:22:29;;;;;;;8.23;1.70;;;11.20;88.70;;;;;;4994369;28;20018;-68
2022/01/30 07:24:55;;;;;;;4.93;1.55;;;11.10;88.50;;;;;;4993179;28;20018;-68
2022/01/30 07:27:21;;;;;;;7.68;1.33;;;11.20;89.10;;;;;;4995188;28;20042;-68
2022/01/30 07:29:46;;;;;;;6.65;1.20;;;11.20;89.10;;;;;;5003399;28;20026;-68
2022/01/30 07:32:12;;;;;;;7.60;1.58;;;11.20;89.00;;;;;;5005114;28;20034;-69
2022/01/30 07:34:37;;;;;;;10.02;1.95;;;11.20;88.80;;;;;;4993571;28;20425;-69
2022/01/30 07:37:04;;;;;;;9.27;2.05;;;11.20;89.10;;;;;;4994645;28;20413;-69
2022/01/30 07:39:31;;;;;;;7.22;1.98;;;11.20;88.70;;;;;;4994954;28;20054;-69
2022/01/30 07:41:57;;;;;;;9.85;1.90;;;11.20;88.40;;;;;;4997523;28;20053;-69
2022/01/30 07:44:23;;;;;;;7.40;1.48;;;11.10;88.40;;;;;;5012590;28;20026;-68
2022/01/30 07:46:49;;;;;;;8.52;2.08;;;11.10;88.40;;;;;;5002665;28;20107;-70
2022/01/30 07:49:14;;;;;;;9.45;1.95;;;11.10;88.50;;;;;;5009428;28;20033;-68
2022/01/30 07:51:40;;;;;;;6.32;1.55;;;11.10;87.80;;;;;;4993572;28;20027;-67
2022/01/30 07:54:06;;;;;;;10.20;2.05;;;11.10;88.00;;;;;;5000482;28;20499;-67
2022/01/30 07:56:31;;;;;;;11.77;2.15;;;11.10;87.80;;;;;;5002488;28;20493;-68
2022/01/30 07:58:57;;;;;;;8.57;1.73;;;11.00;87.70;;;;;;4994723;28;20401;-69
2022/01/30 08:01:23;;;;;;;9.27;1.80;;;11.00;87.70;;;;;;4993068;28;20037;-69
2022/01/30 08:03:48;;;;;;;7.90;1.70;;;11.00;87.70;;;;;;5009165;28;20029;-68
2022/01/30 08:06:14;;;;;;;8.10;2.03;;;11.00;87.50;;;;;;4995670;28;20030;-69
2022/01/30 08:08:40;;;;;;;5.07;1.52;;;11.00;87.70;;;;;;4994196;28;20042;-67
2022/01/30 08:11:08;;;;;;;8.55;1.73;;;11.00;87.50;;;;;;4994554;28;20041;-68
2022/01/30 08:13:34;;;;;;;10.15;2.13;;;10.90;86.80;;;;;;4992583;28;20038;-68
2022/01/30 08:16:00;;;;;;;10.40;1.83;;;10.90;86.90;;;;;;4995848;28;20022;-71
2022/01/30 08:18:25;;;;;;;6.88;1.75;;;10.90;87.00;;;;;;4997001;28;20485;-69
2022/01/30 08:20:51;;;;;;;8.20;1.73;;;10.90;86.30;;;;;;4994829;28;20057;-68
2022/01/30 08:23:19;;;;;;;10.52;2.10;;;10.80;86.10;;;;;;4996526;28;20070;-67
2022/01/30 08:25:45;;;;;;;11.38;2.10;;;10.80;86.70;;;;;;5008107;28;20026;-68
2022/01/30 08:28:11;;;;;;;6.97;1.60;;;10.90;86.30;;;;;;4992082;28;20481;-68
2022/01/30 08:30:36;;;;;;;12.27;2.25;;;11.10;88.40;;;;;;4993552;28;20034;-68
2022/01/30 08:33:03;;;;;;;11.50;2.15;;;11.40;87.60;;;;;;4993749;28;20121;-68
2022/01/30 08:35:30;;;;;;;10.02;2.60;;;11.60;87.40;;;;;;4993731;28;20030;-69
2022/01/30 08:37:56;;;;;;;11.20;1.95;;;11.90;87.30;;;;;;4994320;28;20528;-69
2022/01/30 08:40:22;;;;;;;12.95;2.28;;;12.20;85.90;;;;;;4992409;28;20033;-69
2022/01/30 08:42:50;;;;;;;8.55;1.80;;;12.50;85.50;;;;;;4992584;28;20093;-69
2022/01/30 08:45:18;;;;;;;8.40;1.75;;;12.70;85.60;;;;;;4994328;28;20105;-69
2022/01/30 08:47:47;;;;;;;8.90;1.95;;;13.00;84.70;;;;;;4992880;28;20046;-69
2022/01/30 08:50:14;;;;;;;10.98;2.10;;;13.20;82.40;;;;;;5000135;28;20018;-69
2022/01/30 08:52:41;;;;;;;10.60;2.22;;;13.40;83.40;;;;;;5007658;28;20026;-69
2022/01/30 08:55:08;;;;;;;9.27;2.72;;;13.60;83.80;;;;;;5016772;28;20018;-69
2022/01/30 08:57:34;;;;;;;9.68;2.17;;;13.80;82.70;;;;;;5000112;28;20105;-74
2022/01/30 09:00:00;;;;;;;10.05;2.13;;;14.00;80.10;;;;;;4998538;28;20153;-72
2022/01/30 09:02:26;;;;;;;9.23;2.28;;;13.90;79.20;;;;;;5005265;28;20027;-72
2022/01/30 09:04:52;;;;;;;9.63;2.40;;;13.80;78.30;;;;;;4994140;28;20026;-70
2022/01/30 09:07:20;;;;;;;10.10;2.53;;;13.70;79.10;;;;;;4999422;28;20408;-71
2022/01/30 09:09:46;;;;;;;9.30;2.05;;;13.90;81.20;;;;;;4996696;28;20015;-71
2022/01/30 09:12:12;;;;;;;8.88;2.17;;;13.90;79.80;;;;;;4997516;28;20035;-71
2022/01/30 09:14:39;;;;;;;7.38;2.13;;;14.00;80.50;;;;;;4996866;28;20382;-71
2022/01/30 09:17:13;;;;;;;12.57;2.60;;;14.10;80.30;;;;;;4997288;28;20026;-71
2022/01/30 09:19:40;;;;;;;7.72;2.03;;;14.10;79.80;;;;;;4994587;28;20034;-72
2022/01/30 09:22:08;;;;;;;10.75;2.40;;;14.10;80.00;;;;;;4992117;28;20106;-71
2022/01/30 09:24:34;;;;;;;10.40;2.53;;;14.20;80.50;;;;;;4997262;28;20015;-70
2022/01/30 09:27:00;;;;;;;10.15;2.58;;;14.30;80.10;;;;;;4996379;28;20121;-72
2022/01/30 09:29:27;;;;;;;10.90;2.35;;;14.30;78.70;;;;;;4997552;28;20157;-70
2022/01/30 09:31:52;;;;;;;14.57;2.60;;;14.40;79.00;;;;;;4995867;28;20033;-70
2022/01/30 09:34:18;;;;;;;12.45;2.50;;;14.40;79.20;;;;;;4996854;28;20026;-69
2022/01/30 09:36:44;;;;;;;10.20;2.97;;;14.40;77.40;;;;;;5002464;28;20931;-75
2022/01/30 09:39:09;;;;;;;9.52;2.45;;;14.50;77.90;;;;;;5005503;28;20048;-75
2022/01/30 09:41:36;;;;;;;11.95;2.58;;;14.60;78.10;;;;;;5008746;28;20022;-76
2022/01/30 09:44:02;;;;;;;10.75;2.67;;;14.80;78.90;;;;;;4999591;28;20037;-75
2022/01/30 09:46:29;;;;;;;10.18;2.75;;;15.00;77.70;;;;;;4995657;28;20034;-74
2022/01/30 09:48:55;;;;;;;9.40;2.83;;;15.10;77.80;;;;;;4998862;28;20027;-75
2022/01/30 09:51:21;;;;;;;8.63;2.40;;;15.30;77.10;;;;;;4997863;28;20031;-75
2022/01/30 09:53:48;;;;;;;8.70;2.30;;;15.30;75.70;;;;;;5000199;28;20530;-76
2022/01/30 09:56:14;;;;;;;8.05;2.55;;;15.40;75.50;;;;;;5000050;28;20064;-76
2022/01/30 09:58:39;;;;;;;12.10;2.58;;;15.50;76.30;;;;;;4996489;28;20046;-76
2022/01/30 10:01:05;;;;;;;11.30;2.80;;;15.50;75.90;;;;;;4997295;28;20061;-77
2022/01/30 10:03:31;;;;;;;8.40;2.30;;;15.60;75.60;;;;;;4999186;28;20038;-76
2022/01/30 10:06:12;;;;;;;11.82;2.22;;;15.80;76.40;;;;;;4999737;28;20026;-75
2022/01/30 10:08:43;;;;;;;13.55;2.60;;;15.70;74.50;;;;;;4997264;28;20057;-76
2022/01/30 10:11:32;;;;;;;13.73;3.30;;;15.40;73.20;;;;;;5009276;28;20022;-75
2022/01/30 10:14:08;;;;;;;11.60;2.67;;;15.00;73.00;;;;;;5001726;28;20033;-75
2022/01/30 10:16:40;;;;;;;12.02;2.70;;;14.60;73.60;;;;;;5008085;28;20162;-75
2022/01/30 10:19:20;;;;;;;12.90;2.55;;;14.50;75.40;;;;;;5013329;28;20030;-75
2022/01/30 10:22:06;;;;;;;11.57;2.42;;;14.50;76.00;;;;;;5016676;28;20045;-76
2022/01/30 10:24:37;;;;;;;11.75;2.80;;;14.50;75.20;;;;;;5014329;28;20081;-77
2022/01/30 10:27:20;;;;;;;9.75;3.15;;;14.50;75.20;;;;;;5015880;28;20535;-77
2022/01/30 10:29:59;;;;;;;11.48;2.92;;;14.60;75.70;;;;;;5013880;28;20022;-76
2022/01/30 10:32:26;;;;;;;10.13;2.47;;;14.50;75.30;;;;;;5015730;28;20030;-73
2022/01/30 10:35:05;;;;;;;12.35;2.80;;;14.60;75.00;;;;;;5014979;28;20823;-78
2022/01/30 10:37:32;;;;;;;8.27;2.30;;;14.80;75.90;;;;;;5016425;28;20579;-72
2022/01/30 10:40:14;;;;;;;9.60;2.53;;;14.90;76.50;;;;;;5017961;28;20132;-71
2022/01/30 10:42:49;;;;;;;13.18;2.58;;;14.90;74.90;;;;;;5018360;28;20025;-71
2022/01/30 10:45:26;;;;;;;12.10;3.22;;;14.80;74.00;;;;;;5008335;28;20508;-71
2022/01/30 10:48:08;;;;;;;12.23;3.38;;;14.80;74.40;;;;;;4999765;28;20096;-71
2022/01/30 10:50:34;;;;;;;8.95;2.63;;;14.70;74.70;;;;;;5004283;28;20408;-71
2022/01/30 10:53:03;;;;;;;8.70;2.05;;;14.70;74.80;;;;;;5011176;28;20025;-69
2022/01/30 10:55:36;;;;;;;11.60;2.53;;;15.00;76.00;;;;;;4999781;28;20022;-69
2022/01/30 10:58:04;;;;;;;11.02;2.58;;;15.20;74.70;;;;;;5008928;28;20022;-72
2022/01/30 11:00:46;;;;;;;10.18;2.40;;;15.00;72.70;;;;;;4998529;28;20034;-69
2022/01/30 11:03:44;;;;;;;8.43;2.20;;;15.00;73.60;;;;;;5003390;28;20029;-71
2022/01/30 11:06:13;;;;;;;11.10;2.58;;;15.00;73.90;;;;;;5000677;28;20038;-70
2022/01/30 11:08:42;;;;;;;12.88;2.78;;;14.90;73.00;;;;;;5004202;28;20117;-74
2022/01/30 11:11:28;;;;;;;8.15;1.90;;;14.80;72.00;;;;;;5015582;28;20037;-69
2022/01/30 11:19:17;;;;;;;8.95;2.08;;;14.40;70.40;;;;;;5015003;28;20053;-70
2022/01/30 11:21:47;;;;;;;9.13;2.22;;;14.10;69.00;;;;;;5016206;28;20018;-71
2022/01/30 11:24:14;;;;;;;9.73;1.95;;;14.00;70.40;;;;;;5017033;28;20377;-71
2022/01/30 11:26:40;;;;;;;8.80;1.90;;;13.90;70.20;;;;;;5019078;28;20510;-71
2022/01/30 11:29:14;;;;;;;8.48;2.17;;;13.90;70.80;;;;;;5016288;28;20476;-70
2022/01/30 11:31:41;;;;;;;9.50;2.20;;;14.00;71.30;;;;;;4995126;28;20501;-70
2022/01/30 11:34:07;;;;;;;11.15;2.20;;;14.00;68.90;;;;;;5003560;28;20037;-70
2022/01/30 11:36:37;;;;;;;9.15;2.70;;;14.20;71.10;;;;;;5006050;28;20058;-73
2022/01/30 11:39:04;;;;;;;6.95;1.98;;;14.60;72.90;;;;;;5000389;28;20034;-71
2022/01/30 11:41:34;;;;;;;8.18;1.60;;;14.90;69.70;;;;;;5006229;28;20038;-71
2022/01/30 11:44:18;;;;;;;10.05;2.10;;;14.70;66.70;;;;;;5008024;28;20044;-71
2022/01/30 11:47:00;;;;;;;5.85;2.00;;;14.30;68.20;;;;;;5002294;28;20456;-70
2022/01/30 11:49:39;;;;;;;9.48;2.10;;;14.40;68.30;;;;;;5009218;28;20042;-71
2022/01/30 11:52:07;;;;;;;6.97;2.30;;;14.80;71.30;;;;;;5006608;28;20022;-73
2022/01/30 11:55:02;;;;;;;8.52;1.90;;;15.50;71.20;;;;;;5004418;28;20389;-73
2022/01/30 11:57:28;;;;;;;5.78;1.90;;;16.50;72.30;;;;;;4992225;28;20040;-80
2022/01/30 12:00:00;;;;;;;8.55;2.38;;;16.80;66.20;;;;;;5005960;28;20131;-72
2022/01/30 12:02:30;;;;;;;8.40;2.23;;;16.70;65.80;;;;;;5005184;28;20034;-78
2022/01/30 12:05:04;;;;;;;8.55;2.03;;;16.70;65.00;;;;;;5008860;28;20058;-73
2022/01/30 12:07:46;;;;;;;6.88;1.98;;;16.80;65.70;;;;;;5010565;28;20051;-73
2022/01/30 12:10:20;;;;;;;8.13;2.22;;;16.80;63.00;;;;;;5011230;28;20500;-73
2022/01/30 12:13:01;;;;;;;12.57;4.80;;;16.40;62.70;;;;;;5009943;28;20030;-72
2022/01/30 12:15:46;;;;;;;11.73;2.42;;;16.00;61.40;;;;;;5007043;28;20026;-73
2022/01/30 12:18:13;;;;;;;9.10;2.60;;;15.70;64.50;;;;;;5004268;28;20104;-71
2022/01/30 12:20:59;;;;;;;11.60;2.47;;;15.70;63.70;;;;;;5003741;28;20489;-72
2022/01/30 12:23:27;;;;;;;6.97;1.95;;;15.60;64.20;;;;;;5005447;28;20523;-72
2022/01/30 12:25:56;;;;;;;10.48;2.50;;;15.50;63.60;;;;;;5008161;28;20037;-72
2022/01/30 12:28:38;;;;;;;11.52;2.08;;;15.60;65.60;;;;;;5002222;28;20060;-73
2022/01/30 12:31:22;;;;;;;9.05;2.03;;;15.80;65.90;;;;;;5003899;28;20030;-73
2022/01/30 12:33:48;;;;;;;10.23;2.15;;;16.10;66.10;;;;;;5005429;28;20033;-70
2022/01/30 12:36:16;;;;;;;8.07;1.98;;;16.30;64.90;;;;;;5014219;28;20042;-69
2022/01/30 12:38:42;;;;;;;10.32;2.03;;;16.50;62.80;;;;;;5003331;28;20026;-69
2022/01/30 12:41:14;;;;;;;10.20;2.30;;;16.30;62.50;;;;;;5003761;28;20061;-69
2022/01/30 12:43:39;;;;;;;10.07;2.03;;;16.00;62.90;;;;;;5008250;28;20067;-69
2022/01/30 12:46:09;;;;;;;7.07;1.98;;;15.70;62.00;;;;;;5003354;28;20488;-69
2022/01/30 12:48:35;;;;;;;13.23;2.33;;;15.40;62.90;;;;;;5010296;28;20080;-68
2022/01/30 12:51:06;;;;;;;7.43;2.03;;;15.30;63.80;;;;;;4996487;28;20034;-68
2022/01/30 12:53:35;;;;;;;9.90;2.30;;;15.20;64.30;;;;;;4998447;28;20117;-68
2022/01/30 12:56:01;;;;;;;8.60;2.38;;;15.20;65.00;;;;;;5007309;28;20441;-69
2022/01/30 12:58:34;;;;;;;8.32;1.95;;;15.20;64.60;;;;;;5008783;28;20062;-69
2022/01/30 13:01:14;;;;;;;9.98;2.25;;;15.00;64.90;;;;;;5007363;28;20030;-70
2022/01/30 13:03:41;;;;;;;7.78;1.88;;;14.90;64.80;;;;;;5006614;28;20021;-69
2022/01/30 13:06:07;;;;;;;7.20;2.20;;;14.70;64.70;;;;;;5006678;28;20109;-70
2022/01/30 13:08:47;;;;;;;10.90;2.50;;;14.60;63.90;;;;;;5017845;28;20029;-71
2022/01/30 13:11:21;;;;;;;9.38;2.38;;;14.50;64.80;;;;;;5019816;28;20110;-71
2022/01/30 13:13:57;;;;;;;8.75;2.05;;;14.40;64.90;;;;;;5019686;28;20026;-72
2022/01/30 13:16:29;;;;;;;7.50;2.25;;;14.30;64.90;;;;;;5022249;28;20231;-71
2022/01/30 13:18:55;;;;;;;8.95;2.30;;;14.30;64.90;;;;;;5018101;28;20042;-71
2022/01/30 13:21:22;;;;;;;6.63;1.85;;;14.30;64.70;;;;;;5017859;28;20404;-71
2022/01/30 13:23:48;;;;;;;9.05;2.38;;;14.60;66.50;;;;;;5019692;28;20036;-71
2022/01/30 13:26:35;;;;;;;7.90;1.98;;;14.80;65.10;;;;;;5020821;28;20038;-71
2022/01/30 13:29:05;;;;;;;6.72;2.10;;;14.80;65.00;;;;;;5020781;28;20026;-71
2022/01/30 13:31:31;;;;;;;7.63;2.05;;;14.70;64.10;;;;;;5019594;28;20033;-71
2022/01/30 13:34:11;;;;;;;10.38;2.35;;;14.70;63.80;;;;;;5019950;28;20030;-71
2022/01/30 13:36:38;;;;;;;6.72;1.77;;;14.60;65.00;;;;;;5017931;28;20042;-72
2022/01/30 13:39:08;;;;;;;7.40;1.85;;;14.70;64.70;;;;;;5018235;28;20064;-71
2022/01/30 13:41:44;;;;;;;5.68;1.75;;;14.80;63.90;;;;;;5019380;28;20018;-71
2022/01/30 13:44:31;;;;;;;10.68;2.30;;;14.80;64.40;;;;;;5017541;28;20104;-71
2022/01/30 13:47:02;;;;;;;8.07;1.88;;;14.70;63.60;;;;;;5019583;28;20045;-72
2022/01/30 13:49:29;;;;;;;7.28;1.88;;;14.80;64.00;;;;;;5019217;28;20113;-72